Terminal Aerodrome Forecast
Issued by NWS Upton, NY

Home | Current Version | Previous Version | Text Only | Print | Product List | Glossary On
Versions: 1 2 3 4 5 6 7 8 9 10 11 12 13 14 15 16 17 18 19 20 21 22 23 24 25 26 27 28 29 30
451
FTUS41 KOKX 190529
TAFISP
TAF
KISP 190529Z 1906/2006 20015G24KT 6SM -SHRA BR OVC060 WS020/22050KT
     FM190900 21018G33KT 3SM SHRA BR BKN015 OVC040 WS020/22050KT
     FM191200 21020G39KT 5SM -SHRA BR BKN020 OVC035
     FM191400 25023G40KT P6SM SCT020 BKN040
     FM191700 29021G39KT P6SM SCT040
     FM192200 29017G31KT P6SM SCT040
     FM200300 29015G26KT P6SM FEW040=

USA.gov is the U.S. government's official web portal to all federal, state and local government web resources and services.